sensor_id;sensor_type;location;lat;lon;timestamp;temperature;humidity
3067;DHT22;1544;48.834;9.194;2024-02-26T00:02:07;9.70;32.10
3067;DHT22;1544;48.834;9.194;2024-02-26T00:04:43;9.70;32.00
3067;DHT22;1544;48.834;9.194;2024-02-26T00:07:19;9.70;32.10
3067;DHT22;1544;48.834;9.194;2024-02-26T00:09:55;9.70;32.10
3067;DHT22;1544;48.834;9.194;2024-02-26T00:12:30;9.70;32.10
3067;DHT22;1544;48.834;9.194;2024-02-26T00:15:08;9.70;32.10
3067;DHT22;1544;48.834;9.194;2024-02-26T00:17:44;9.70;32.10
3067;DHT22;1544;48.834;9.194;2024-02-26T00:20:21;9.70;32.40
3067;DHT22;1544;48.834;9.194;2024-02-26T00:22:57;9.70;31.90
3067;DHT22;1544;48.834;9.194;2024-02-26T00:25:32;9.70;31.80
3067;DHT22;1544;48.834;9.194;2024-02-26T00:28:09;9.70;31.60
3067;DHT22;1544;48.834;9.194;2024-02-26T00:30:46;9.70;31.40
3067;DHT22;1544;48.834;9.194;2024-02-26T00:33:22;9.70;31.40
3067;DHT22;1544;48.834;9.194;2024-02-26T00:35:59;9.70;31.40
3067;DHT22;1544;48.834;9.194;2024-02-26T00:38:35;9.70;31.50
3067;DHT22;1544;48.834;9.194;2024-02-26T00:41:11;9.70;31.60
3067;DHT22;1544;48.834;9.194;2024-02-26T00:43:47;9.70;31.60
3067;DHT22;1544;48.834;9.194;2024-02-26T00:46:23;9.70;31.70
3067;DHT22;1544;48.834;9.194;2024-02-26T00:48:59;9.70;31.70
3067;DHT22;1544;48.834;9.194;2024-02-26T00:51:36;9.70;31.60
3067;DHT22;1544;48.834;9.194;2024-02-26T00:54:12;9.80;31.70
3067;DHT22;1544;48.834;9.194;2024-02-26T00:56:48;9.80;31.70
3067;DHT22;1544;48.834;9.194;2024-02-26T00:59:24;9.80;31.70
3067;DHT22;1544;48.834;9.194;2024-02-26T01:02:00;9.80;31.70
3067;DHT22;1544;48.834;9.194;2024-02-26T01:04:38;9.80;31.80
3067;DHT22;1544;48.834;9.194;2024-02-26T01:07:14;9.80;31.90
3067;DHT22;1544;48.834;9.194;2024-02-26T01:09:50;9.80;31.90
3067;DHT22;1544;48.834;9.194;2024-02-26T01:12:26;9.80;31.90
3067;DHT22;1544;48.834;9.194;2024-02-26T01:15:02;9.80;31.90
3067;DHT22;1544;48.834;9.194;2024-02-26T01:17:39;9.90;32.10
3067;DHT22;1544;48.834;9.194;2024-02-26T01:20:15;9.80;32.00
3067;DHT22;1544;48.834;9.194;2024-02-26T01:22:51;9.70;32.00
3067;DHT22;1544;48.834;9.194;2024-02-26T01:25:27;9.70;32.00
3067;DHT22;1544;48.834;9.194;2024-02-26T01:28:03;9.70;32.10
3067;DHT22;1544;48.834;9.194;2024-02-26T01:30:39;9.60;32.20
3067;DHT22;1544;48.834;9.194;2024-02-26T01:33:15;9.50;32.20
3067;DHT22;1544;48.834;9.194;2024-02-26T01:35:52;9.50;32.20
3067;DHT22;1544;48.834;9.194;2024-02-26T01:38:28;9.60;32.30
3067;DHT22;1544;48.834;9.194;2024-02-26T01:41:04;9.60;32.30
3067;DHT22;1544;48.834;9.194;2024-02-26T01:43:40;9.60;32.20
3067;DHT22;1544;48.834;9.194;2024-02-26T01:46:16;9.60;32.20
3067;DHT22;1544;48.834;9.194;2024-02-26T01:48:53;9.60;32.20
3067;DHT22;1544;48.834;9.194;2024-02-26T01:51:30;9.60;32.10
3067;DHT22;1544;48.834;9.194;2024-02-26T01:54:08;9.60;32.20
3067;DHT22;1544;48.834;9.194;2024-02-26T01:56:44;9.60;32.30
3067;DHT22;1544;48.834;9.194;2024-02-26T01:59:20;9.50;32.30
3067;DHT22;1544;48.834;9.194;2024-02-26T02:01:58;9.50;32.30
3067;DHT22;1544;48.834;9.194;2024-02-26T02:04:38;9.50;32.30
3067;DHT22;1544;48.834;9.194;2024-02-26T02:07:14;9.60;32.30
3067;DHT22;1544;48.834;9.194;2024-02-26T02:09:51;9.60;32.20
3067;DHT22;1544;48.834;9.194;2024-02-26T02:12:27;9.60;32.30
3067;DHT22;1544;48.834;9.194;2024-02-26T02:15:03;9.60;32.30
3067;DHT22;1544;48.834;9.194;2024-02-26T02:17:40;9.60;32.30
3067;DHT22;1544;48.834;9.194;2024-02-26T02:20:17;9.60;32.40
3067;DHT22;1544;48.834;9.194;2024-02-26T02:22:54;9.60;32.40
3067;DHT22;1544;48.834;9.194;2024-02-26T02:25:30;9.60;32.30
3067;DHT22;1544;48.834;9.194;2024-02-26T02:28:06;9.60;32.30
3067;DHT22;1544;48.834;9.194;2024-02-26T02:30:42;9.60;32.30
3067;DHT22;1544;48.834;9.194;2024-02-26T02:33:17;9.60;32.20
3067;DHT22;1544;48.834;9.194;2024-02-26T02:35:54;9.60;31.80
3067;DHT22;1544;48.834;9.194;2024-02-26T02:38:30;9.60;31.80
3067;DHT22;1544;48.834;9.194;2024-02-26T02:41:07;9.60;31.90
3067;DHT22;1544;48.834;9.194;2024-02-26T02:43:43;9.70;31.70
3067;DHT22;1544;48.834;9.194;2024-02-26T02:46:20;9.70;31.70
3067;DHT22;1544;48.834;9.194;2024-02-26T02:48:56;9.70;31.90
3067;DHT22;1544;48.834;9.194;2024-02-26T02:51:32;9.70;32.00
3067;DHT22;1544;48.834;9.194;2024-02-26T02:54:08;9.70;31.90
3067;DHT22;1544;48.834;9.194;2024-02-26T02:56:44;9.70;32.00
3067;DHT22;1544;48.834;9.194;2024-02-26T02:59:20;9.60;32.40
3067;DHT22;1544;48.834;9.194;2024-02-26T03:01:56;9.50;32.60
3067;DHT22;1544;48.834;9.194;2024-02-26T03:04:32;9.60;32.70
3067;DHT22;1544;48.834;9.194;2024-02-26T03:07:08;9.60;32.70
3067;DHT22;1544;48.834;9.194;2024-02-26T03:09:44;9.60;32.70
3067;DHT22;1544;48.834;9.194;2024-02-26T03:12:20;9.60;32.70
3067;DHT22;1544;48.834;9.194;2024-02-26T03:14:56;9.50;32.70
3067;DHT22;1544;48.834;9.194;2024-02-26T03:17:32;9.50;32.80
3067;DHT22;1544;48.834;9.194;2024-02-26T03:20:09;9.60;32.80
3067;DHT22;1544;48.834;9.194;2024-02-26T03:22:45;9.60;32.80
3067;DHT22;1544;48.834;9.194;2024-02-26T03:25:21;9.60;32.70
3067;DHT22;1544;48.834;9.194;2024-02-26T03:27:57;9.60;32.80
3067;DHT22;1544;48.834;9.194;2024-02-26T03:30:33;9.60;32.80
3067;DHT22;1544;48.834;9.194;2024-02-26T03:33:09;9.60;33.00
3067;DHT22;1544;48.834;9.194;2024-02-26T03:35:45;9.60;33.10
3067;DHT22;1544;48.834;9.194;2024-02-26T03:38:21;9.60;33.10
3067;DHT22;1544;48.834;9.194;2024-02-26T03:40:57;9.60;33.10
3067;DHT22;1544;48.834;9.194;2024-02-26T03:43:32;9.60;33.10
3067;DHT22;1544;48.834;9.194;2024-02-26T03:46:09;9.60;33.10
3067;DHT22;1544;48.834;9.194;2024-02-26T03:48:46;9.70;33.20
3067;DHT22;1544;48.834;9.194;2024-02-26T03:51:23;9.70;33.20
3067;DHT22;1544;48.834;9.194;2024-02-26T03:53:59;9.60;33.10
3067;DHT22;1544;48.834;9.194;2024-02-26T03:56:35;9.70;33.30
3067;DHT22;1544;48.834;9.194;2024-02-26T03:59:11;9.70;33.40
3067;DHT22;1544;48.834;9.194;2024-02-26T04:01:46;9.60;33.60
3067;DHT22;1544;48.834;9.194;2024-02-26T04:04:22;9.60;33.90
3067;DHT22;1544;48.834;9.194;2024-02-26T04:06:58;9.50;34.00
3067;DHT22;1544;48.834;9.194;2024-02-26T04:09:34;9.50;33.90
3067;DHT22;1544;48.834;9.194;2024-02-26T04:12:10;9.50;33.90
3067;DHT22;1544;48.834;9.194;2024-02-26T04:14:46;9.50;34.00
3067;DHT22;1544;48.834;9.194;2024-02-26T04:17:22;9.40;34.10
3067;DHT22;1544;48.834;9.194;2024-02-26T04:19:59;9.50;34.10
3067;DHT22;1544;48.834;9.194;2024-02-26T04:22:35;9.40;34.00
3067;DHT22;1544;48.834;9.194;2024-02-26T04:25:11;9.40;34.10
3067;DHT22;1544;48.834;9.194;2024-02-26T04:27:47;9.50;34.20
3067;DHT22;1544;48.834;9.194;2024-02-26T04:30:23;9.40;34.00
3067;DHT22;1544;48.834;9.194;2024-02-26T04:32:59;9.40;33.80
3067;DHT22;1544;48.834;9.194;2024-02-26T04:35:36;9.40;33.60
3067;DHT22;1544;48.834;9.194;2024-02-26T04:38:12;9.40;33.40
3067;DHT22;1544;48.834;9.194;2024-02-26T04:40:48;9.30;33.20
3067;DHT22;1544;48.834;9.194;2024-02-26T04:43:24;9.40;33.20
3067;DHT22;1544;48.834;9.194;2024-02-26T04:45:59;9.30;33.10
3067;DHT22;1544;48.834;9.194;2024-02-26T04:48:36;9.30;33.20
3067;DHT22;1544;48.834;9.194;2024-02-26T04:51:14;9.40;33.20
3067;DHT22;1544;48.834;9.194;2024-02-26T04:53:50;9.40;33.20
3067;DHT22;1544;48.834;9.194;2024-02-26T04:56:26;9.40;33.20
3067;DHT22;1544;48.834;9.194;2024-02-26T04:59:02;9.40;33.20
3067;DHT22;1544;48.834;9.194;2024-02-26T05:01:38;9.40;33.20
3067;DHT22;1544;48.834;9.194;2024-02-26T05:04:15;9.40;33.00
3067;DHT22;1544;48.834;9.194;2024-02-26T05:06:51;9.40;32.90
3067;DHT22;1544;48.834;9.194;2024-02-26T05:09:27;9.40;32.90
3067;DHT22;1544;48.834;9.194;2024-02-26T05:12:03;9.40;32.80
3067;DHT22;1544;48.834;9.194;2024-02-26T05:14:39;9.40;32.80
3067;DHT22;1544;48.834;9.194;2024-02-26T05:17:15;9.40;32.80
3067;DHT22;1544;48.834;9.194;2024-02-26T05:19:51;9.40;32.90
3067;DHT22;1544;48.834;9.194;2024-02-26T05:22:27;9.40;32.90
3067;DHT22;1544;48.834;9.194;2024-02-26T05:25:04;9.50;33.00
3067;DHT22;1544;48.834;9.194;2024-02-26T05:27:40;9.40;32.90
3067;DHT22;1544;48.834;9.194;2024-02-26T05:30:16;9.40;33.10
3067;DHT22;1544;48.834;9.194;2024-02-26T05:32:52;9.30;33.20
3067;DHT22;1544;48.834;9.194;2024-02-26T05:35:28;9.30;33.30
3067;DHT22;1544;48.834;9.194;2024-02-26T05:38:04;9.30;33.30
3067;DHT22;1544;48.834;9.194;2024-02-26T05:40:40;9.30;33.30
3067;DHT22;1544;48.834;9.194;2024-02-26T05:43:16;9.40;33.40
3067;DHT22;1544;48.834;9.194;2024-02-26T05:45:52;9.40;33.40
3067;DHT22;1544;48.834;9.194;2024-02-26T05:48:28;9.40;33.50
3067;DHT22;1544;48.834;9.194;2024-02-26T05:51:05;9.40;33.50
3067;DHT22;1544;48.834;9.194;2024-02-26T05:53:41;9.40;33.60
3067;DHT22;1544;48.834;9.194;2024-02-26T05:56:17;9.40;33.60
3067;DHT22;1544;48.834;9.194;2024-02-26T05:58:53;9.40;33.80
3067;DHT22;1544;48.834;9.194;2024-02-26T06:01:30;9.40;34.10
3067;DHT22;1544;48.834;9.194;2024-02-26T06:04:06;9.40;34.10
3067;DHT22;1544;48.834;9.194;2024-02-26T06:06:44;9.40;34.20
3067;DHT22;1544;48.834;9.194;2024-02-26T06:09:22;9.40;34.50
3067;DHT22;1544;48.834;9.194;2024-02-26T06:11:58;9.40;34.70
3067;DHT22;1544;48.834;9.194;2024-02-26T06:14:35;9.40;34.70
3067;DHT22;1544;48.834;9.194;2024-02-26T06:17:11;9.30;35.30
3067;DHT22;1544;48.834;9.194;2024-02-26T06:19:47;9.30;35.50
3067;DHT22;1544;48.834;9.194;2024-02-26T06:22:26;9.30;35.70
3067;DHT22;1544;48.834;9.194;2024-02-26T06:25:03;9.30;35.90
3067;DHT22;1544;48.834;9.194;2024-02-26T06:27:39;9.30;36.00
3067;DHT22;1544;48.834;9.194;2024-02-26T06:30:15;9.30;36.10
3067;DHT22;1544;48.834;9.194;2024-02-26T06:32:51;9.30;36.00
3067;DHT22;1544;48.834;9.194;2024-02-26T06:35:27;9.20;35.90
3067;DHT22;1544;48.834;9.194;2024-02-26T06:38:03;9.20;36.10
3067;DHT22;1544;48.834;9.194;2024-02-26T06:40:40;9.20;36.30
3067;DHT22;1544;48.834;9.194;2024-02-26T06:43:16;9.20;36.40
3067;DHT22;1544;48.834;9.194;2024-02-26T06:45:52;9.20;36.50
3067;DHT22;1544;48.834;9.194;2024-02-26T06:48:29;9.20;36.60
3067;DHT22;1544;48.834;9.194;2024-02-26T06:51:05;9.20;36.80
3067;DHT22;1544;48.834;9.194;2024-02-26T06:53:42;9.20;36.90
3067;DHT22;1544;48.834;9.194;2024-02-26T06:56:18;9.20;37.00
3067;DHT22;1544;48.834;9.194;2024-02-26T06:58:55;9.20;37.10
3067;DHT22;1544;48.834;9.194;2024-02-26T07:01:31;9.20;37.20
3067;DHT22;1544;48.834;9.194;2024-02-26T07:04:07;9.30;37.40
3067;DHT22;1544;48.834;9.194;2024-02-26T07:06:43;9.30;37.40
3067;DHT22;1544;48.834;9.194;2024-02-26T07:09:20;9.30;37.50
3067;DHT22;1544;48.834;9.194;2024-02-26T07:11:56;9.40;37.50
3067;DHT22;1544;48.834;9.194;2024-02-26T07:14:35;9.40;37.50
3067;DHT22;1544;48.834;9.194;2024-02-26T07:17:13;9.50;37.50
3067;DHT22;1544;48.834;9.194;2024-02-26T07:19:49;9.50;37.50
3067;DHT22;1544;48.834;9.194;2024-02-26T07:22:25;9.60;37.50
3067;DHT22;1544;48.834;9.194;2024-02-26T07:25:01;9.60;37.40
3067;DHT22;1544;48.834;9.194;2024-02-26T07:27:37;9.60;37.30
3067;DHT22;1544;48.834;9.194;2024-02-26T07:30:13;9.70;37.20
3067;DHT22;1544;48.834;9.194;2024-02-26T07:32:50;9.70;37.10
3067;DHT22;1544;48.834;9.194;2024-02-26T07:35:27;9.70;37.00
3067;DHT22;1544;48.834;9.194;2024-02-26T07:38:06;9.70;36.90
3067;DHT22;1544;48.834;9.194;2024-02-26T07:40:54;9.70;36.90
3067;DHT22;1544;48.834;9.194;2024-02-26T07:43:37;9.80;37.00
3067;DHT22;1544;48.834;9.194;2024-02-26T07:46:13;9.80;37.00
3067;DHT22;1544;48.834;9.194;2024-02-26T07:48:49;9.80;36.90
3067;DHT22;1544;48.834;9.194;2024-02-26T07:51:26;9.80;36.90
3067;DHT22;1544;48.834;9.194;2024-02-26T07:54:02;9.80;36.90
3067;DHT22;1544;48.834;9.194;2024-02-26T07:56:38;9.80;36.90
3067;DHT22;1544;48.834;9.194;2024-02-26T07:59:14;9.90;37.10
3067;DHT22;1544;48.834;9.194;2024-02-26T08:01:51;9.90;37.00
3067;DHT22;1544;48.834;9.194;2024-02-26T08:04:32;9.90;37.10
3067;DHT22;1544;48.834;9.194;2024-02-26T08:07:08;10.00;36.30
3067;DHT22;1544;48.834;9.194;2024-02-26T08:09:44;10.00;36.40
3067;DHT22;1544;48.834;9.194;2024-02-26T08:12:22;10.00;36.20
3067;DHT22;1544;48.834;9.194;2024-02-26T08:14:58;10.00;36.20
3067;DHT22;1544;48.834;9.194;2024-02-26T08:17:34;10.10;36.20
3067;DHT22;1544;48.834;9.194;2024-02-26T08:20:11;10.20;36.20
3067;DHT22;1544;48.834;9.194;2024-02-26T08:22:48;10.20;36.10
3067;DHT22;1544;48.834;9.194;2024-02-26T08:25:24;10.30;36.20
3067;DHT22;1544;48.834;9.194;2024-02-26T08:28:01;10.40;36.20
3067;DHT22;1544;48.834;9.194;2024-02-26T08:30:37;10.40;36.00
3067;DHT22;1544;48.834;9.194;2024-02-26T08:33:13;10.50;36.20
3067;DHT22;1544;48.834;9.194;2024-02-26T08:35:49;10.50;36.20
3067;DHT22;1544;48.834;9.194;2024-02-26T08:38:25;10.60;36.20
3067;DHT22;1544;48.834;9.194;2024-02-26T08:41:04;10.70;36.40
3067;DHT22;1544;48.834;9.194;2024-02-26T08:43:41;10.70;36.40
3067;DHT22;1544;48.834;9.194;2024-02-26T08:46:17;10.80;36.40
3067;DHT22;1544;48.834;9.194;2024-02-26T08:48:54;10.80;36.20
3067;DHT22;1544;48.834;9.194;2024-02-26T08:51:30;10.90;36.00
3067;DHT22;1544;48.834;9.194;2024-02-26T08:54:10;11.00;36.00
3067;DHT22;1544;48.834;9.194;2024-02-26T08:56:47;11.10;36.00
3067;DHT22;1544;48.834;9.194;2024-02-26T08:59:23;11.20;36.00
3067;DHT22;1544;48.834;9.194;2024-02-26T09:01:59;11.30;35.90
3067;DHT22;1544;48.834;9.194;2024-02-26T09:04:36;11.40;35.80
3067;DHT22;1544;48.834;9.194;2024-02-26T09:07:15;11.50;35.70
3067;DHT22;1544;48.834;9.194;2024-02-26T09:09:51;11.50;35.50
3067;DHT22;1544;48.834;9.194;2024-02-26T09:12:27;11.60;35.40
3067;DHT22;1544;48.834;9.194;2024-02-26T09:15:04;11.70;35.20
3067;DHT22;1544;48.834;9.194;2024-02-26T09:17:41;11.70;34.80
3067;DHT22;1544;48.834;9.194;2024-02-26T09:20:17;11.80;34.60
3067;DHT22;1544;48.834;9.194;2024-02-26T09:22:57;11.90;34.70
3067;DHT22;1544;48.834;9.194;2024-02-26T09:25:33;11.90;34.60
3067;DHT22;1544;48.834;9.194;2024-02-26T09:28:09;12.00;34.60
3067;DHT22;1544;48.834;9.194;2024-02-26T09:30:45;12.00;34.50
3067;DHT22;1544;48.834;9.194;2024-02-26T09:33:21;12.10;34.60
3067;DHT22;1544;48.834;9.194;2024-02-26T09:35:58;12.10;34.60
3067;DHT22;1544;48.834;9.194;2024-02-26T09:38:34;12.10;34.50
3067;DHT22;1544;48.834;9.194;2024-02-26T09:41:30;12.20;34.50
3067;DHT22;1544;48.834;9.194;2024-02-26T09:44:06;12.20;34.40
3067;DHT22;1544;48.834;9.194;2024-02-26T09:46:43;12.20;34.20
3067;DHT22;1544;48.834;9.194;2024-02-26T09:49:22;12.20;34.20
3067;DHT22;1544;48.834;9.194;2024-02-26T09:52:00;12.20;34.30
3067;DHT22;1544;48.834;9.194;2024-02-26T09:54:38;12.30;34.50
3067;DHT22;1544;48.834;9.194;2024-02-26T09:57:16;12.40;34.60
3067;DHT22;1544;48.834;9.194;2024-02-26T09:59:54;12.50;34.50
3067;DHT22;1544;48.834;9.194;2024-02-26T10:02:36;12.60;34.50
3067;DHT22;1544;48.834;9.194;2024-02-26T10:05:18;12.80;34.70
3067;DHT22;1544;48.834;9.194;2024-02-26T10:07:56;13.00;34.80
3067;DHT22;1544;48.834;9.194;2024-02-26T10:10:33;13.20;34.80
3067;DHT22;1544;48.834;9.194;2024-02-26T10:13:10;13.30;34.80
3067;DHT22;1544;48.834;9.194;2024-02-26T10:15:47;13.40;34.60
3067;DHT22;1544;48.834;9.194;2024-02-26T10:18:23;13.70;34.50
3067;DHT22;1544;48.834;9.194;2024-02-26T10:21:03;13.60;34.00
3067;DHT22;1544;48.834;9.194;2024-02-26T10:23:40;13.70;33.80
3067;DHT22;1544;48.834;9.194;2024-02-26T10:26:19;13.80;33.80
3067;DHT22;1544;48.834;9.194;2024-02-26T10:28:59;13.90;33.40
3067;DHT22;1544;48.834;9.194;2024-02-26T10:31:36;14.10;33.50
3067;DHT22;1544;48.834;9.194;2024-02-26T10:34:14;14.20;33.50
3067;DHT22;1544;48.834;9.194;2024-02-26T10:36:51;14.30;33.10
3067;DHT22;1544;48.834;9.194;2024-02-26T10:39:29;14.40;32.90
3067;DHT22;1544;48.834;9.194;2024-02-26T10:42:05;14.60;32.50
3067;DHT22;1544;48.834;9.194;2024-02-26T10:44:48;14.70;32.60
3067;DHT22;1544;48.834;9.194;2024-02-26T10:47:24;14.80;32.90
3067;DHT22;1544;48.834;9.194;2024-02-26T10:50:02;14.90;32.30
3067;DHT22;1544;48.834;9.194;2024-02-26T10:52:40;14.90;31.70
3067;DHT22;1544;48.834;9.194;2024-02-26T10:55:18;15.00;31.80
3067;DHT22;1544;48.834;9.194;2024-02-26T10:57:56;15.10;31.40
3067;DHT22;1544;48.834;9.194;2024-02-26T11:00:33;15.10;31.10
3067;DHT22;1544;48.834;9.194;2024-02-26T11:03:09;15.20;30.60
3067;DHT22;1544;48.834;9.194;2024-02-26T11:05:50;15.30;30.50
3067;DHT22;1544;48.834;9.194;2024-02-26T11:08:27;15.30;30.20
3067;DHT22;1544;48.834;9.194;2024-02-26T11:11:05;15.40;30.30
3067;DHT22;1544;48.834;9.194;2024-02-26T11:13:43;15.50;30.20
3067;DHT22;1544;48.834;9.194;2024-02-26T11:16:27;15.50;29.70
3067;DHT22;1544;48.834;9.194;2024-02-26T11:19:06;15.50;29.60
3067;DHT22;1544;48.834;9.194;2024-02-26T11:21:45;15.60;29.80
3067;DHT22;1544;48.834;9.194;2024-02-26T11:24:21;15.70;30.00
3067;DHT22;1544;48.834;9.194;2024-02-26T11:27:01;15.70;30.30
3067;DHT22;1544;48.834;9.194;2024-02-26T11:29:50;15.80;29.90
3067;DHT22;1544;48.834;9.194;2024-02-26T11:32:28;15.80;29.90
3067;DHT22;1544;48.834;9.194;2024-02-26T11:35:06;15.70;29.40
3067;DHT22;1544;48.834;9.194;2024-02-26T11:37:57;15.70;29.60
3067;DHT22;1544;48.834;9.194;2024-02-26T11:40:38;15.70;29.70
3067;DHT22;1544;48.834;9.194;2024-02-26T11:43:15;15.70;29.80
3067;DHT22;1544;48.834;9.194;2024-02-26T11:45:52;15.80;29.80
3067;DHT22;1544;48.834;9.194;2024-02-26T11:48:28;15.90;29.90
3067;DHT22;1544;48.834;9.194;2024-02-26T11:51:05;16.00;29.50
3067;DHT22;1544;48.834;9.194;2024-02-26T11:53:48;16.10;29.50
3067;DHT22;1544;48.834;9.194;2024-02-26T11:56:27;16.20;29.50
3067;DHT22;1544;48.834;9.194;2024-02-26T11:59:10;16.20;29.10
3067;DHT22;1544;48.834;9.194;2024-02-26T12:01:48;16.20;29.30
3067;DHT22;1544;48.834;9.194;2024-02-26T12:04:26;16.20;29.30
3067;DHT22;1544;48.834;9.194;2024-02-26T12:07:05;16.20;29.20
3067;DHT22;1544;48.834;9.194;2024-02-26T12:09:42;16.20;29.20
3067;DHT22;1544;48.834;9.194;2024-02-26T12:12:18;16.20;29.00
3067;DHT22;1544;48.834;9.194;2024-02-26T12:14:56;16.10;28.90
3067;DHT22;1544;48.834;9.194;2024-02-26T12:17:33;16.10;28.70
3067;DHT22;1544;48.834;9.194;2024-02-26T12:20:10;16.10;28.90
3067;DHT22;1544;48.834;9.194;2024-02-26T12:22:49;16.10;28.90
3067;DHT22;1544;48.834;9.194;2024-02-26T12:25:27;16.10;28.70
3067;DHT22;1544;48.834;9.194;2024-02-26T12:28:04;16.20;29.10
3067;DHT22;1544;48.834;9.194;2024-02-26T12:30:40;16.20;29.00
3067;DHT22;1544;48.834;9.194;2024-02-26T12:33:16;16.30;29.00
3067;DHT22;1544;48.834;9.194;2024-02-26T12:35:53;16.50;28.90
3067;DHT22;1544;48.834;9.194;2024-02-26T12:38:29;16.60;29.00
3067;DHT22;1544;48.834;9.194;2024-02-26T12:41:06;16.60;28.80
3067;DHT22;1544;48.834;9.194;2024-02-26T12:43:42;16.60;28.80
3067;DHT22;1544;48.834;9.194;2024-02-26T12:46:18;16.70;28.90
3067;DHT22;1544;48.834;9.194;2024-02-26T12:48:58;16.80;28.70
3067;DHT22;1544;48.834;9.194;2024-02-26T12:51:37;16.80;28.40
3067;DHT22;1544;48.834;9.194;2024-02-26T12:54:14;17.00;28.50
3067;DHT22;1544;48.834;9.194;2024-02-26T12:56:50;17.10;28.60
3067;DHT22;1544;48.834;9.194;2024-02-26T12:59:26;17.20;28.50
3067;DHT22;1544;48.834;9.194;2024-02-26T13:02:03;17.20;28.30
3067;DHT22;1544;48.834;9.194;2024-02-26T13:04:43;17.30;28.50
3067;DHT22;1544;48.834;9.194;2024-02-26T13:07:21;17.30;28.60
3067;DHT22;1544;48.834;9.194;2024-02-26T13:09:57;17.30;28.80
3067;DHT22;1544;48.834;9.194;2024-02-26T13:12:33;17.40;28.60
3067;DHT22;1544;48.834;9.194;2024-02-26T13:15:14;17.50;28.50
3067;DHT22;1544;48.834;9.194;2024-02-26T13:17:52;17.60;28.30
3067;DHT22;1544;48.834;9.194;2024-02-26T13:20:30;17.60;28.00
3067;DHT22;1544;48.834;9.194;2024-02-26T13:23:10;17.70;28.10
3067;DHT22;1544;48.834;9.194;2024-02-26T13:25:47;17.80;28.40
3067;DHT22;1544;48.834;9.194;2024-02-26T13:28:24;17.80;28.40
3067;DHT22;1544;48.834;9.194;2024-02-26T13:31:03;17.90;28.80
3067;DHT22;1544;48.834;9.194;2024-02-26T13:33:41;17.90;28.90
3067;DHT22;1544;48.834;9.194;2024-02-26T13:36:17;18.00;28.80
3067;DHT22;1544;48.834;9.194;2024-02-26T13:38:54;18.10;28.90
3067;DHT22;1544;48.834;9.194;2024-02-26T13:41:31;18.20;29.10
3067;DHT22;1544;48.834;9.194;2024-02-26T13:44:08;18.30;29.20
3067;DHT22;1544;48.834;9.194;2024-02-26T13:46:44;18.30;29.30
3067;DHT22;1544;48.834;9.194;2024-02-26T13:49:20;18.40;29.40
3067;DHT22;1544;48.834;9.194;2024-02-26T13:51:56;18.40;29.00
3067;DHT22;1544;48.834;9.194;2024-02-26T13:54:32;18.50;29.30
3067;DHT22;1544;48.834;9.194;2024-02-26T13:57:10;18.50;28.80
3067;DHT22;1544;48.834;9.194;2024-02-26T13:59:46;18.60;29.10
3067;DHT22;1544;48.834;9.194;2024-02-26T14:02:23;18.70;29.00
3067;DHT22;1544;48.834;9.194;2024-02-26T14:04:59;18.70;28.90
3067;DHT22;1544;48.834;9.194;2024-02-26T14:07:39;18.70;28.70
3067;DHT22;1544;48.834;9.194;2024-02-26T14:10:16;18.70;28.60
3067;DHT22;1544;48.834;9.194;2024-02-26T14:12:52;18.80;28.50
3067;DHT22;1544;48.834;9.194;2024-02-26T14:15:29;19.00;28.10
3067;DHT22;1544;48.834;9.194;2024-02-26T14:18:05;19.10;28.10
3067;DHT22;1544;48.834;9.194;2024-02-26T14:20:43;19.30;28.30
3067;DHT22;1544;48.834;9.194;2024-02-26T14:23:20;19.30;28.30
3067;DHT22;1544;48.834;9.194;2024-02-26T14:25:56;19.30;28.30
3067;DHT22;1544;48.834;9.194;2024-02-26T14:28:32;19.40;28.40
3067;DHT22;1544;48.834;9.194;2024-02-26T14:31:11;19.40;28.10
3067;DHT22;1544;48.834;9.194;2024-02-26T14:33:47;19.50;28.00
3067;DHT22;1544;48.834;9.194;2024-02-26T14:36:27;19.50;28.00
3067;DHT22;1544;48.834;9.194;2024-02-26T14:39:03;19.50;28.00
3067;DHT22;1544;48.834;9.194;2024-02-26T14:41:40;19.60;28.10
3067;DHT22;1544;48.834;9.194;2024-02-26T14:44:16;19.80;27.90
3067;DHT22;1544;48.834;9.194;2024-02-26T14:46:52;19.90;27.80
3067;DHT22;1544;48.834;9.194;2024-02-26T14:49:28;20.10;28.00
3067;DHT22;1544;48.834;9.194;2024-02-26T14:52:06;20.10;27.90
3067;DHT22;1544;48.834;9.194;2024-02-26T14:54:45;20.20;27.30
3067;DHT22;1544;48.834;9.194;2024-02-26T14:57:21;20.20;27.60
3067;DHT22;1544;48.834;9.194;2024-02-26T14:59:57;20.30;27.80
3067;DHT22;1544;48.834;9.194;2024-02-26T15:02:33;20.30;28.00
3067;DHT22;1544;48.834;9.194;2024-02-26T15:05:09;20.30;27.60
3067;DHT22;1544;48.834;9.194;2024-02-26T15:07:47;20.30;27.50
3067;DHT22;1544;48.834;9.194;2024-02-26T15:10:23;20.20;27.20
3067;DHT22;1544;48.834;9.194;2024-02-26T15:12:59;20.00;27.00
3067;DHT22;1544;48.834;9.194;2024-02-26T15:15:35;19.80;27.10
3067;DHT22;1544;48.834;9.194;2024-02-26T15:18:12;19.50;26.90
3067;DHT22;1544;48.834;9.194;2024-02-26T15:20:52;19.40;27.40
3067;DHT22;1544;48.834;9.194;2024-02-26T15:23:28;19.30;27.70
3067;DHT22;1544;48.834;9.194;2024-02-26T15:26:04;19.20;27.80
3067;DHT22;1544;48.834;9.194;2024-02-26T15:28:43;19.00;27.60
3067;DHT22;1544;48.834;9.194;2024-02-26T15:31:24;18.90;27.70
3067;DHT22;1544;48.834;9.194;2024-02-26T15:34:01;18.70;27.70
3067;DHT22;1544;48.834;9.194;2024-02-26T15:36:38;18.60;27.70
3067;DHT22;1544;48.834;9.194;2024-02-26T15:39:14;18.50;27.80
3067;DHT22;1544;48.834;9.194;2024-02-26T15:41:50;18.40;27.80
3067;DHT22;1544;48.834;9.194;2024-02-26T15:44:27;18.30;27.90
3067;DHT22;1544;48.834;9.194;2024-02-26T15:47:03;18.20;28.00
3067;DHT22;1544;48.834;9.194;2024-02-26T15:49:39;18.10;28.30
3067;DHT22;1544;48.834;9.194;2024-02-26T15:52:15;17.90;28.30
3067;DHT22;1544;48.834;9.194;2024-02-26T15:54:51;17.80;28.50
3067;DHT22;1544;48.834;9.194;2024-02-26T15:57:28;17.70;28.60
3067;DHT22;1544;48.834;9.194;2024-02-26T16:00:04;17.50;28.50
3067;DHT22;1544;48.834;9.194;2024-02-26T16:02:49;17.40;28.60
3067;DHT22;1544;48.834;9.194;2024-02-26T16:05:25;17.20;28.50
3067;DHT22;1544;48.834;9.194;2024-02-26T16:08:16;17.10;28.50
3067;DHT22;1544;48.834;9.194;2024-02-26T16:10:57;17.00;28.70
3067;DHT22;1544;48.834;9.194;2024-02-26T16:13:33;16.90;28.80
3067;DHT22;1544;48.834;9.194;2024-02-26T16:16:13;16.80;28.70
3067;DHT22;1544;48.834;9.194;2024-02-26T16:19:01;16.80;28.70
3067;DHT22;1544;48.834;9.194;2024-02-26T16:21:41;16.70;28.80
3067;DHT22;1544;48.834;9.194;2024-02-26T16:24:18;16.60;28.90
3067;DHT22;1544;48.834;9.194;2024-02-26T16:26:54;16.50;28.90
3067;DHT22;1544;48.834;9.194;2024-02-26T16:29:30;16.40;28.80
3067;DHT22;1544;48.834;9.194;2024-02-26T16:32:06;16.30;29.00
3067;DHT22;1544;48.834;9.194;2024-02-26T16:34:43;16.20;28.90
3067;DHT22;1544;48.834;9.194;2024-02-26T16:37:19;16.00;28.80
3067;DHT22;1544;48.834;9.194;2024-02-26T16:39:58;15.90;28.70
3067;DHT22;1544;48.834;9.194;2024-02-26T16:42:36;15.70;28.50
3067;DHT22;1544;48.834;9.194;2024-02-26T16:45:12;15.70;28.40
3067;DHT22;1544;48.834;9.194;2024-02-26T16:47:48;15.70;28.40
3067;DHT22;1544;48.834;9.194;2024-02-26T16:50:25;15.50;28.30
3067;DHT22;1544;48.834;9.194;2024-02-26T16:53:02;15.40;28.10
3067;DHT22;1544;48.834;9.194;2024-02-26T16:55:38;15.20;27.90
3067;DHT22;1544;48.834;9.194;2024-02-26T16:58:14;15.10;27.90
3067;DHT22;1544;48.834;9.194;2024-02-26T17:00:49;15.10;27.90
3067;DHT22;1544;48.834;9.194;2024-02-26T17:03:26;15.00;28.00
3067;DHT22;1544;48.834;9.194;2024-02-26T17:06:02;14.90;28.00
3067;DHT22;1544;48.834;9.194;2024-02-26T17:08:38;14.80;27.90
3067;DHT22;1544;48.834;9.194;2024-02-26T17:11:15;14.80;28.00
3067;DHT22;1544;48.834;9.194;2024-02-26T17:13:52;14.70;28.10